Time;durP1;ratioP1;P1;durP2;ratioP2;P2;SDS_P1;SDS_P2;PMS_P1;PMS_P2;Temp;Humidity;BMP_temperature;BMP_pressure;BME280_temperature;BME280_humidity;BME280_pressure;Samples;Min_cycle;Max_cycle;Signal;HPM_P1;HPM_P2
2021/09/30 00:02:20;;;;;;;1.98;0.80;;;;;;;;;;5072345;28;20421;-52
2021/09/30 00:04:46;;;;;;;0.85;0.63;;;;;;;;;;5068927;28;20036;-55
2021/09/30 00:07:13;;;;;;;2.17;0.77;;;;;;;;;;5065105;28;20067;-51
2021/09/30 00:09:44;;;;;;;2.75;0.70;;;;;;;;;;5068909;28;20029;-52
2021/09/30 00:12:16;;;;;;;0.50;0.50;;;;;;;;;;5067917;28;20025;-56
2021/09/30 00:14:54;;;;;;;1.40;0.90;;;;;;;;;;5072354;28;20037;-52
2021/09/30 00:18:10;;;;;;;1.02;0.68;;;;;;;;;;5069373;28;20376;-52
2021/09/30 00:34:09;;;;;;;1.50;0.80;;;;;;;;;;5065479;28;20036;-54
2021/09/30 00:41:55;;;;;;;0.73;0.40;;;;;;;;;;5067460;28;20071;-54
2021/09/30 00:49:53;;;;;;;2.28;0.80;;;;;;;;;;5065163;28;20040;-52
2021/09/30 00:52:35;;;;;;;1.90;0.70;;;;;;;;;;5067235;28;20490;-52
2021/09/30 00:55:28;;;;;;;0.80;0.65;;;;;;;;;;5072306;28;20034;-55
2021/09/30 01:31:02;;;;;;;1.00;0.70;;;;;;;;;;5067889;28;20168;-53
2021/09/30 02:19:07;;;;;;;2.90;0.65;;;;;;;;;;5073116;28;20545;-52
2021/09/30 02:22:04;;;;;;;;;;;;;;;;;;5073696;28;20020;-54
2021/09/30 02:27:35;;;;;;;0.95;0.65;;;;;;;;;;5073511;28;20360;-56
2021/09/30 02:30:26;;;;;;;1.80;0.68;;;;;;;;;;5071802;28;20024;-55
2021/09/30 02:58:13;;;;;;;2.35;0.73;;;;;;;;;;5048028;28;20415;-56
2021/09/30 03:00:40;;;;;;;1.30;0.90;;;;;;;;;;5065582;28;20107;-56
2021/09/30 03:03:08;;;;;;;2.28;0.77;;;;;;;;;;5072184;28;20028;-57
2021/09/30 03:05:34;;;;;;;2.25;0.90;;;;;;;;;;5068675;28;20579;-53
2021/09/30 03:08:00;;;;;;;1.45;0.93;;;;;;;;;;5073531;28;20075;-53
2021/09/30 03:10:26;;;;;;;0.90;0.70;;;;;;;;;;5068593;28;20025;-55
2021/09/30 03:12:53;;;;;;;1.55;0.80;;;;;;;;;;5072097;28;20074;-53
2021/09/30 03:18:01;;;;;;;2.67;0.73;;;;;;;;;;5070340;28;20046;-54
2021/09/30 03:20:36;;;;;;;1.40;0.80;;;;;;;;;;5071767;28;20369;-53
2021/09/30 03:23:08;;;;;;;1.20;0.95;;;;;;;;;;5066691;28;20056;-53
2021/09/30 03:25:34;;;;;;;2.08;0.80;;;;;;;;;;5069185;28;20047;-56
2021/09/30 03:28:01;;;;;;;1.13;0.85;;;;;;;;;;5069497;28;20095;-51
2021/09/30 03:30:28;;;;;;;2.40;0.70;;;;;;;;;;5067501;28;20545;-56
2021/09/30 03:32:54;;;;;;;1.17;0.82;;;;;;;;;;5063470;28;20029;-56
2021/09/30 03:35:21;;;;;;;1.35;0.82;;;;;;;;;;5070407;28;20127;-55
2021/09/30 03:37:47;;;;;;;0.90;0.70;;;;;;;;;;5073367;28;20455;-56
2021/09/30 03:40:13;;;;;;;1.75;0.85;;;;;;;;;;5064519;28;20036;-53
2021/09/30 03:42:39;;;;;;;2.08;1.15;;;;;;;;;;5065128;28;20025;-54
2021/09/30 03:45:06;;;;;;;3.28;1.15;;;;;;;;;;5064110;28;20056;-54
2021/09/30 03:47:32;;;;;;;2.92;0.85;;;;;;;;;;5072288;28;20556;-53
2021/09/30 03:49:58;;;;;;;2.17;1.20;;;;;;;;;;5070199;28;20352;-54
2021/09/30 03:52:36;;;;;;;5.35;1.10;;;;;;;;;;5064516;28;20090;-56
2021/09/30 04:00:22;;;;;;;1.67;0.65;;;;;;;;;;5071398;28;20546;-55
2021/09/30 04:02:48;;;;;;;4.93;1.35;;;;;;;;;;5071743;28;20036;-54
2021/09/30 04:05:14;;;;;;;1.52;0.88;;;;;;;;;;5062227;28;20512;-54
2021/09/30 04:07:41;;;;;;;0.95;0.70;;;;;;;;;;5061522;28;20040;-56
2021/09/30 04:10:07;;;;;;;0.77;0.65;;;;;;;;;;5067524;28;20111;-51
2021/09/30 04:12:33;;;;;;;1.08;0.82;;;;;;;;;;5066358;28;20025;-53
2021/09/30 04:14:59;;;;;;;1.50;1.00;;;;;;;;;;5068019;28;20052;-57
2021/09/30 04:17:25;;;;;;;1.20;0.70;;;;;;;;;;5066600;28;20039;-53
2021/09/30 04:19:51;;;;;;;1.90;0.85;;;;;;;;;;5067728;28;20033;-55
2021/09/30 04:22:17;;;;;;;1.45;0.80;;;;;;;;;;5067860;28;20037;-57
2021/09/30 04:24:45;;;;;;;1.38;0.77;;;;;;;;;;5069041;28;20052;-54
2021/09/30 04:27:11;;;;;;;1.10;0.80;;;;;;;;;;5065224;28;20025;-56
2021/09/30 04:29:37;;;;;;;3.33;1.40;;;;;;;;;;5070415;28;20115;-53
2021/09/30 04:32:03;;;;;;;3.15;0.70;;;;;;;;;;5069082;28;20381;-55
2021/09/30 04:34:29;;;;;;;2.78;1.05;;;;;;;;;;5066441;28;20028;-51
2021/09/30 04:36:55;;;;;;;0.70;0.52;;;;;;;;;;5070440;28;20107;-54
2021/09/30 04:39:21;;;;;;;3.20;0.65;;;;;;;;;;5070101;28;20036;-52
2021/09/30 04:41:48;;;;;;;0.95;0.60;;;;;;;;;;5066391;28;20119;-56
2021/09/30 04:44:14;;;;;;;1.98;0.82;;;;;;;;;;5070389;28;20107;-52
2021/09/30 04:46:40;;;;;;;2.80;0.65;;;;;;;;;;5060521;28;20029;-56
2021/09/30 04:49:06;;;;;;;1.50;0.80;;;;;;;;;;5068426;28;20103;-52
2021/09/30 04:51:32;;;;;;;0.98;0.63;;;;;;;;;;5067296;28;20418;-55
2021/09/30 04:53:58;;;;;;;0.82;0.68;;;;;;;;;;5071035;28;20024;-56
2021/09/30 04:56:24;;;;;;;1.52;0.80;;;;;;;;;;5067817;28;20101;-57
2021/09/30 04:58:50;;;;;;;1.00;0.80;;;;;;;;;;5070097;28;20032;-57
2021/09/30 05:01:17;;;;;;;3.20;0.70;;;;;;;;;;5065405;28;20028;-57
2021/09/30 05:03:42;;;;;;;0.75;0.65;;;;;;;;;;5064399;28;20040;-54
2021/09/30 05:06:09;;;;;;;2.33;0.68;;;;;;;;;;5068456;28;20029;-52
2021/09/30 05:08:35;;;;;;;0.50;0.50;;;;;;;;;;5065954;28;20461;-53
2021/09/30 05:11:02;;;;;;;2.00;0.70;;;;;;;;;;5068245;28;20066;-54
2021/09/30 05:13:38;;;;;;;1.10;0.73;;;;;;;;;;5065581;28;20027;-54
2021/09/30 05:16:05;;;;;;;6.65;0.80;;;;;;;;;;5061756;28;20114;-53
2021/09/30 05:18:31;;;;;;;1.15;0.50;;;;;;;;;;5063880;28;20056;-55
2021/09/30 05:20:58;;;;;;;4.22;0.60;;;;;;;;;;5071025;28;20025;-56
2021/09/30 05:23:24;;;;;;;1.08;0.90;;;;;;;;;;5071962;28;20044;-55
2021/09/30 05:25:50;;;;;;;2.00;0.55;;;;;;;;;;5062440;28;20044;-52
2021/09/30 05:28:16;;;;;;;1.30;0.70;;;;;;;;;;5069793;28;20060;-51
2021/09/30 05:30:42;;;;;;;2.90;0.70;;;;;;;;;;5071496;28;20074;-53
2021/09/30 05:33:08;;;;;;;1.05;0.70;;;;;;;;;;5066441;28;20021;-55
2021/09/30 05:35:34;;;;;;;1.52;0.90;;;;;;;;;;5069492;28;20050;-57
2021/09/30 05:38:00;;;;;;;3.08;0.75;;;;;;;;;;5071081;28;20043;-56
2021/09/30 05:40:28;;;;;;;1.55;0.52;;;;;;;;;;5070987;28;20028;-57
2021/09/30 05:42:55;;;;;;;1.55;0.60;;;;;;;;;;5061683;28;20115;-56
2021/09/30 05:45:22;;;;;;;1.10;0.70;;;;;;;;;;5071003;28;20548;-53
2021/09/30 05:47:48;;;;;;;2.38;0.80;;;;;;;;;;5073650;28;20106;-54
2021/09/30 05:50:14;;;;;;;3.38;0.70;;;;;;;;;;5074534;28;20028;-56
2021/09/30 05:52:41;;;;;;;1.15;0.88;;;;;;;;;;5071896;28;20056;-54
2021/09/30 05:55:07;;;;;;;0.70;0.65;;;;;;;;;;5073190;28;20033;-51
2021/09/30 05:57:33;;;;;;;1.30;0.63;;;;;;;;;;5074771;28;20040;-52
2021/09/30 06:00:28;;;;;;;6.07;0.70;;;;;;;;;;5072347;28;20036;-55
2021/09/30 06:11:45;;;;;;;1.50;0.70;;;;;;;;;;5068999;28;20137;-55
2021/09/30 06:13:59;;;;;;;2.22;0.95;;;;;;;;;;5067666;28;20119;-56
2021/09/30 06:16:26;;;;;;;2.55;0.73;;;;;;;;;;5071724;28;20029;-56
2021/09/30 06:18:52;;;;;;;2.15;0.80;;;;;;;;;;5072167;28;20524;-55
2021/09/30 06:21:18;;;;;;;0.70;0.60;;;;;;;;;;5070671;28;20078;-53
2021/09/30 06:23:44;;;;;;;1.00;0.52;;;;;;;;;;5071101;28;20032;-55
2021/09/30 06:26:10;;;;;;;1.77;0.70;;;;;;;;;;5071936;28;20082;-57
2021/09/30 06:28:37;;;;;;;0.68;0.43;;;;;;;;;;5074267;28;20103;-54
2021/09/30 06:31:03;;;;;;;0.93;0.50;;;;;;;;;;5075067;28;20035;-54
2021/09/30 06:33:30;;;;;;;3.35;0.65;;;;;;;;;;5074635;28;20025;-55
2021/09/30 06:35:56;;;;;;;1.75;0.60;;;;;;;;;;5068315;28;20047;-55
2021/09/30 06:38:22;;;;;;;1.40;0.57;;;;;;;;;;5068752;28;20176;-54
2021/09/30 06:40:48;;;;;;;1.13;0.60;;;;;;;;;;5063923;28;20052;-56
2021/09/30 06:43:14;;;;;;;3.25;1.20;;;;;;;;;;5072733;28;20032;-54
2021/09/30 06:45:40;;;;;;;4.10;0.65;;;;;;;;;;5074142;28;20032;-52
2021/09/30 06:48:07;;;;;;;1.15;0.50;;;;;;;;;;5073910;28;20033;-54
2021/09/30 06:50:33;;;;;;;4.50;0.70;;;;;;;;;;5073680;28;20035;-52
2021/09/30 06:53:01;;;;;;;3.58;0.75;;;;;;;;;;5072874;28;20021;-54
2021/09/30 06:55:27;;;;;;;2.13;0.70;;;;;;;;;;5068491;28;20035;-53
2021/09/30 06:57:53;;;;;;;2.80;0.60;;;;;;;;;;5075376;28;20056;-53
2021/09/30 07:00:21;;;;;;;4.35;0.80;;;;;;;;;;5071230;28;20056;-55
2021/09/30 07:02:47;;;;;;;1.13;0.73;;;;;;;;;;5067831;28;20021;-53
2021/09/30 07:05:14;;;;;;;1.85;0.70;;;;;;;;;;5068630;28;20028;-53
2021/09/30 07:07:40;;;;;;;3.55;0.68;;;;;;;;;;5072405;28;20021;-54
2021/09/30 07:10:09;;;;;;;1.23;0.73;;;;;;;;;;5065028;28;20113;-54
2021/09/30 07:12:35;;;;;;;2.05;0.70;;;;;;;;;;5067945;28;20519;-55
2021/09/30 07:15:01;;;;;;;1.33;0.57;;;;;;;;;;5070280;28;20036;-55
2021/09/30 07:17:28;;;;;;;0.75;0.60;;;;;;;;;;5072092;28;20100;-57
2021/09/30 07:19:54;;;;;;;1.63;0.70;;;;;;;;;;5068867;28;20037;-56
2021/09/30 07:22:20;;;;;;;1.17;0.60;;;;;;;;;;5072992;28;20058;-55
2021/09/30 07:24:46;;;;;;;1.80;1.10;;;;;;;;;;5072638;28;20038;-52
2021/09/30 07:27:14;;;;;;;5.38;0.70;;;;;;;;;;5072407;28;20065;-55
2021/09/30 07:29:40;;;;;;;2.85;0.75;;;;;;;;;;5072865;28;20100;-53
2021/09/30 07:32:06;;;;;;;1.00;0.70;;;;;;;;;;5073252;28;20021;-53
2021/09/30 07:34:33;;;;;;;1.05;0.52;;;;;;;;;;5073686;28;20024;-55
2021/09/30 07:36:59;;;;;;;4.13;0.80;;;;;;;;;;5072794;28;20032;-55
2021/09/30 07:39:26;;;;;;;3.22;0.80;;;;;;;;;;5070427;28;20121;-52
2021/09/30 07:41:52;;;;;;;1.25;0.68;;;;;;;;;;5070235;28;20032;-52
2021/09/30 07:44:18;;;;;;;0.60;0.50;;;;;;;;;;5067050;28;20028;-53
2021/09/30 07:46:45;;;;;;;6.75;0.88;;;;;;;;;;5072997;28;20534;-54
2021/09/30 07:49:12;;;;;;;0.70;0.40;;;;;;;;;;5069164;28;20365;-52
2021/09/30 07:51:39;;;;;;;1.10;0.70;;;;;;;;;;5067620;28;20032;-58
2021/09/30 07:54:06;;;;;;;0.95;0.63;;;;;;;;;;5065922;28;20492;-55
2021/09/30 07:56:32;;;;;;;1.25;0.65;;;;;;;;;;5074104;28;20449;-57
2021/09/30 07:58:59;;;;;;;0.95;0.65;;;;;;;;;;5071375;28;20117;-58
2021/09/30 08:01:25;;;;;;;3.22;0.60;;;;;;;;;;5079081;28;20099;-57
2021/09/30 08:03:51;;;;;;;1.38;0.65;;;;;;;;;;5076298;28;20032;-54
2021/09/30 08:06:18;;;;;;;2.03;1.02;;;;;;;;;;5072613;28;20020;-54
2021/09/30 08:08:44;;;;;;;4.28;1.25;;;;;;;;;;5072476;28;20048;-54
2021/09/30 08:11:10;;;;;;;3.58;0.80;;;;;;;;;;5068010;28;20104;-57
2021/09/30 08:13:36;;;;;;;1.75;0.57;;;;;;;;;;5070641;28;20048;-52
2021/09/30 08:16:02;;;;;;;0.77;0.60;;;;;;;;;;5072001;28;20532;-56
2021/09/30 08:18:28;;;;;;;1.48;1.00;;;;;;;;;;5071712;28;20044;-54
2021/09/30 08:20:54;;;;;;;0.88;0.60;;;;;;;;;;5071925;28;20614;-52
2021/09/30 08:23:21;;;;;;;1.58;0.68;;;;;;;;;;5070634;28;20029;-56
2021/09/30 08:25:47;;;;;;;2.38;0.60;;;;;;;;;;5066769;28;20492;-56
2021/09/30 08:28:13;;;;;;;1.25;0.60;;;;;;;;;;5071459;28;20020;-56
2021/09/30 08:30:40;;;;;;;1.48;0.60;;;;;;;;;;5070210;28;20025;-58
2021/09/30 08:33:10;;;;;;;4.10;0.52;;;;;;;;;;5071827;28;20070;-56
2021/09/30 08:35:37;;;;;;;4.25;0.60;;;;;;;;;;5072220;28;20111;-57
2021/09/30 08:38:03;;;;;;;0.95;0.77;;;;;;;;;;5071646;28;20108;-55
2021/09/30 08:40:29;;;;;;;0.63;0.45;;;;;;;;;;5067553;28;20369;-57
2021/09/30 08:42:55;;;;;;;5.40;0.82;;;;;;;;;;5071919;28;20025;-57
2021/09/30 08:45:22;;;;;;;0.60;0.40;;;;;;;;;;5072018;28;20111;-51
2021/09/30 08:47:58;;;;;;;2.05;0.50;;;;;;;;;;5071963;28;20040;-55
2021/09/30 08:50:24;;;;;;;1.45;0.50;;;;;;;;;;5072342;28;20062;-55
2021/09/30 08:52:50;;;;;;;1.77;0.70;;;;;;;;;;5071870;28;20016;-51
2021/09/30 08:55:16;;;;;;;1.85;0.68;;;;;;;;;;5072061;28;20417;-53
2021/09/30 08:57:46;;;;;;;4.30;0.65;;;;;;;;;;5071510;28;20055;-52
2021/09/30 09:00:13;;;;;;;4.68;0.90;;;;;;;;;;5069669;28;20404;-54
2021/09/30 09:02:41;;;;;;;1.90;0.50;;;;;;;;;;5071888;28;20163;-53
2021/09/30 09:05:07;;;;;;;1.30;0.60;;;;;;;;;;5066677;28;20062;-53
2021/09/30 09:07:33;;;;;;;2.53;0.40;;;;;;;;;;5079974;28;20021;-57
2021/09/30 09:10:01;;;;;;;1.92;0.73;;;;;;;;;;5071472;28;20028;-56
2021/09/30 09:12:31;;;;;;;3.92;0.73;;;;;;;;;;5071727;28;20040;-57
2021/09/30 09:14:58;;;;;;;1.65;0.50;;;;;;;;;;5071427;28;20025;-55
2021/09/30 09:17:24;;;;;;;1.00;0.50;;;;;;;;;;5071313;28;20021;-58
2021/09/30 09:19:51;;;;;;;3.88;0.50;;;;;;;;;;5070772;28;20385;-56
2021/09/30 09:22:17;;;;;;;0.47;0.40;;;;;;;;;;5071236;28;20148;-53
2021/09/30 09:24:57;;;;;;;2.05;0.40;;;;;;;;;;5066653;28;20028;-55
2021/09/30 09:27:23;;;;;;;1.10;0.40;;;;;;;;;;5064992;28;20020;-57
2021/09/30 09:29:50;;;;;;;0.32;0.32;;;;;;;;;;5072442;28;20140;-56
2021/09/30 09:32:16;;;;;;;4.07;1.13;;;;;;;;;;5072265;28;20077;-54
2021/09/30 09:34:41;;;;;;;1.13;0.60;;;;;;;;;;5073009;28;20028;-51
2021/09/30 09:37:38;;;;;;;2.22;0.40;;;;;;;;;;5071324;28;20503;-52
2021/09/30 09:40:14;;;;;;;2.45;0.40;;;;;;;;;;5068070;28;20392;-57
2021/09/30 09:42:40;;;;;;;5.53;0.60;;;;;;;;;;5071776;28;20024;-55
2021/09/30 09:45:10;;;;;;;0.82;0.40;;;;;;;;;;5067945;28;20025;-52
2021/09/30 09:47:37;;;;;;;3.75;0.35;;;;;;;;;;5071492;28;20028;-53
2021/09/30 09:50:17;;;;;;;2.88;0.73;;;;;;;;;;5069903;28;20131;-53
2021/09/30 09:52:45;;;;;;;3.03;0.40;;;;;;;;;;5071372;28;20342;-51
2021/09/30 09:55:22;;;;;;;1.75;0.73;;;;;;;;;;5070633;28;20025;-54
2021/09/30 09:58:04;;;;;;;6.03;0.70;;;;;;;;;;5070897;28;20039;-52
2021/09/30 10:00:38;;;;;;;1.13;0.43;;;;;;;;;;5069427;28;20396;-56
2021/09/30 10:03:15;;;;;;;2.15;0.40;;;;;;;;;;5073739;28;20243;-54
2021/09/30 10:05:41;;;;;;;0.38;0.28;;;;;;;;;;5071169;28;20035;-53
2021/09/30 10:08:09;;;;;;;0.77;0.38;;;;;;;;;;5069692;28;20442;-51
2021/09/30 10:10:36;;;;;;;1.73;0.50;;;;;;;;;;5070527;28;20028;-56
2021/09/30 10:13:02;;;;;;;0.82;0.50;;;;;;;;;;5070756;28;20124;-55
2021/09/30 10:15:28;;;;;;;0.52;0.35;;;;;;;;;;5070703;28;20021;-56
2021/09/30 10:17:55;;;;;;;1.83;0.55;;;;;;;;;;5070140;28;20059;-54
2021/09/30 10:20:21;;;;;;;1.75;0.40;;;;;;;;;;5070595;28;20037;-55
2021/09/30 10:22:51;;;;;;;1.27;0.60;;;;;;;;;;5070494;28;20044;-54
2021/09/30 10:25:17;;;;;;;1.45;0.52;;;;;;;;;;5070305;28;20054;-54
2021/09/30 10:27:43;;;;;;;2.58;0.90;;;;;;;;;;5070808;28;20100;-53
2021/09/30 10:30:29;;;;;;;3.63;0.40;;;;;;;;;;5070367;28;20469;-55
2021/09/30 10:32:55;;;;;;;2.10;0.77;;;;;;;;;;5064825;28;20027;-56
2021/09/30 10:35:34;;;;;;;1.08;0.50;;;;;;;;;;5068429;28;20107;-57
2021/09/30 10:38:15;;;;;;;0.68;0.47;;;;;;;;;;5071260;28;20112;-51
2021/09/30 10:41:00;;;;;;;0.77;0.30;;;;;;;;;;5073127;28;20036;-56
2021/09/30 10:43:27;;;;;;;1.10;0.30;;;;;;;;;;5073970;28;20515;-54
2021/09/30 10:45:53;;;;;;;0.60;0.43;;;;;;;;;;5074415;28;20028;-56
2021/09/30 10:48:31;;;;;;;1.25;0.50;;;;;;;;;;5073858;28;20020;-56
2021/09/30 10:50:59;;;;;;;0.93;0.40;;;;;;;;;;5074497;28;20020;-54
2021/09/30 10:53:44;;;;;;;1.35;0.70;;;;;;;;;;5074014;28;20111;-51
2021/09/30 10:56:29;;;;;;;0.40;0.30;;;;;;;;;;5074163;28;20434;-51
2021/09/30 10:59:07;;;;;;;2.17;0.75;;;;;;;;;;5073912;28;20059;-53
2021/09/30 11:01:45;;;;;;;2.00;0.57;;;;;;;;;;5074753;28;20107;-55
2021/09/30 11:04:11;;;;;;;1.55;0.52;;;;;;;;;;5070990;28;20380;-55
2021/09/30 11:06:39;;;;;;;1.27;0.30;;;;;;;;;;5073957;28;20033;-53
2021/09/30 11:09:11;;;;;;;3.33;0.40;;;;;;;;;;5073820;28;20028;-54
2021/09/30 11:11:38;;;;;;;1.67;0.40;;;;;;;;;;5074144;28;20025;-53
2021/09/30 11:14:04;;;;;;;3.30;0.40;;;;;;;;;;5072721;28;20040;-54
2021/09/30 11:16:47;;;;;;;2.03;0.47;;;;;;;;;;5073924;28;20032;-52
2021/09/30 11:19:29;;;;;;;3.30;0.60;;;;;;;;;;5073634;28;20130;-56
2021/09/30 11:21:56;;;;;;;1.63;0.50;;;;;;;;;;5069236;28;20037;-51
2021/09/30 11:24:23;;;;;;;1.48;0.50;;;;;;;;;;5072576;28;20468;-53
2021/09/30 11:26:51;;;;;;;1.33;0.50;;;;;;;;;;5069747;28;20048;-53
2021/09/30 11:29:20;;;;;;;1.98;0.50;;;;;;;;;;5073490;28;20017;-51
2021/09/30 11:31:47;;;;;;;2.40;0.70;;;;;;;;;;5073632;28;20081;-53
2021/09/30 11:34:20;;;;;;;2.38;0.38;;;;;;;;;;5072228;28;20125;-54
2021/09/30 11:36:46;;;;;;;1.00;0.30;;;;;;;;;;5073196;28;20057;-57
2021/09/30 11:39:12;;;;;;;2.28;0.40;;;;;;;;;;5070110;28;20099;-56
2021/09/30 11:41:39;;;;;;;1.70;0.40;;;;;;;;;;5073445;28;20028;-55
2021/09/30 11:44:06;;;;;;;2.00;0.28;;;;;;;;;;5068971;28;20111;-57
2021/09/30 11:46:33;;;;;;;1.60;0.38;;;;;;;;;;5069753;28;20491;-53
2021/09/30 11:49:01;;;;;;;1.60;0.43;;;;;;;;;;5063279;28;20025;-55
2021/09/30 11:51:32;;;;;;;2.15;0.50;;;;;;;;;;5066995;28;20032;-55
2021/09/30 11:53:58;;;;;;;7.50;0.85;;;;;;;;;;5071469;28;20059;-57
2021/09/30 11:56:24;;;;;;;1.55;0.50;;;;;;;;;;5068205;28;20521;-57
2021/09/30 11:58:58;;;;;;;5.15;0.70;;;;;;;;;;5071910;28;20050;-57
2021/09/30 12:01:24;;;;;;;;;;;;;;;;;;5065356;28;20484;-57
2021/09/30 12:03:51;;;;;;;3.15;0.43;;;;;;;;;;5073228;28;19958;-57
2021/09/30 12:06:17;;;;;;;1.75;0.47;;;;;;;;;;5066930;28;20033;-55
2021/09/30 12:08:43;;;;;;;2.05;0.40;;;;;;;;;;5072121;28;20062;-53
2021/09/30 12:11:12;;;;;;;0.80;0.60;;;;;;;;;;5068300;28;20465;-55
2021/09/30 12:13:43;;;;;;;1.80;0.40;;;;;;;;;;5072324;28;20120;-55
2021/09/30 12:16:10;;;;;;;1.38;0.50;;;;;;;;;;5071334;28;20111;-55
2021/09/30 12:18:36;;;;;;;3.03;0.20;;;;;;;;;;5059089;28;20076;-57
2021/09/30 12:21:02;;;;;;;2.28;0.20;;;;;;;;;;5063666;28;20079;-57
2021/09/30 12:23:28;;;;;;;0.40;0.15;;;;;;;;;;5064650;28;20037;-55
2021/09/30 12:25:55;;;;;;;1.83;0.40;;;;;;;;;;5068802;28;20041;-57
2021/09/30 12:28:21;;;;;;;0.85;0.13;;;;;;;;;;5065589;28;20064;-57
2021/09/30 12:30:47;;;;;;;0.73;0.10;;;;;;;;;;5072405;28;20024;-55
2021/09/30 12:33:13;;;;;;;1.25;0.13;;;;;;;;;;5071925;28;20047;-57
2021/09/30 12:35:41;;;;;;;1.08;0.30;;;;;;;;;;5065455;28;20029;-53
2021/09/30 12:38:16;;;;;;;2.17;0.68;;;;;;;;;;5071849;28;20043;-53
2021/09/30 12:40:46;;;;;;;1.20;0.10;;;;;;;;;;5067026;28;20031;-55
2021/09/30 12:43:14;;;;;;;0.73;0.10;;;;;;;;;;5074067;28;20028;-56
2021/09/30 12:45:55;;;;;;;0.47;0.10;;;;;;;;;;5072107;28;20052;-57
2021/09/30 12:48:22;;;;;;;3.55;0.38;;;;;;;;;;5070023;28;20402;-59
2021/09/30 12:51:11;;;;;;;0.98;0.20;;;;;;;;;;5071571;28;20073;-57
2021/09/30 12:53:41;;;;;;;4.45;0.30;;;;;;;;;;5059820;28;20116;-59
2021/09/30 12:56:08;;;;;;;0.63;0.15;;;;;;;;;;5070831;28;20037;-54
2021/09/30 12:58:39;;;;;;;2.80;0.30;;;;;;;;;;5066493;28;20097;-56
2021/09/30 13:01:25;;;;;;;1.10;0.10;;;;;;;;;;5072297;28;20040;-51
2021/09/30 13:04:08;;;;;;;1.02;0.10;;;;;;;;;;5076880;28;20460;-53
2021/09/30 13:06:34;;;;;;;0.40;0.15;;;;;;;;;;5071872;28;20028;-55
2021/09/30 13:09:00;;;;;;;0.85;0.20;;;;;;;;;;5067466;28;20025;-56
2021/09/30 13:11:31;;;;;;;1.33;0.30;;;;;;;;;;5069589;28;20377;-53
2021/09/30 13:14:15;;;;;;;1.95;0.47;;;;;;;;;;5071451;28;20036;-52
2021/09/30 13:16:42;;;;;;;0.70;0.15;;;;;;;;;;5065324;28;20032;-54
2021/09/30 13:19:08;;;;;;;2.50;0.10;;;;;;;;;;5069811;28;20737;-55
2021/09/30 13:21:52;;;;;;;2.35;0.63;;;;;;;;;;5071225;28;20062;-52
2021/09/30 13:24:18;;;;;;;2.25;0.10;;;;;;;;;;5067850;28;20377;-53
2021/09/30 13:26:44;;;;;;;1.23;0.10;;;;;;;;;;5070719;28;20036;-52
2021/09/30 13:29:10;;;;;;;2.35;0.38;;;;;;;;;;5070422;28;20524;-57
2021/09/30 13:31:36;;;;;;;0.40;0.00;;;;;;;;;;5071346;28;20020;-56
2021/09/30 13:34:02;;;;;;;1.60;0.30;;;;;;;;;;5066971;28;20036;-54
2021/09/30 13:36:28;;;;;;;0.57;0.10;;;;;;;;;;5068654;28;20410;-58
2021/09/30 13:38:54;;;;;;;1.80;0.40;;;;;;;;;;5068640;28;20032;-58
2021/09/30 13:41:20;;;;;;;1.23;0.20;;;;;;;;;;5071159;28;20028;-51
2021/09/30 13:43:46;;;;;;;2.47;0.45;;;;;;;;;;5069815;28;20090;-54
2021/09/30 13:46:12;;;;;;;2.83;0.30;;;;;;;;;;5070912;28;20503;-57
2021/09/30 13:48:38;;;;;;;3.35;0.63;;;;;;;;;;5069880;28;20039;-53
2021/09/30 13:51:04;;;;;;;0.95;0.13;;;;;;;;;;5068110;28;20063;-52
2021/09/30 13:53:30;;;;;;;2.15;0.30;;;;;;;;;;5070228;28;20016;-51
2021/09/30 13:55:56;;;;;;;2.30;0.20;;;;;;;;;;5070445;28;20051;-52
2021/09/30 13:58:22;;;;;;;0.55;0.10;;;;;;;;;;5067389;28;20483;-54
2021/09/30 14:00:48;;;;;;;0.80;0.20;;;;;;;;;;5070262;28;20039;-56
2021/09/30 14:03:14;;;;;;;0.50;0.30;;;;;;;;;;5070916;28;20028;-56
2021/09/30 14:05:40;;;;;;;5.13;0.20;;;;;;;;;;5070543;28;20021;-52
2021/09/30 14:08:06;;;;;;;1.08;0.10;;;;;;;;;;5069066;28;20157;-53
2021/09/30 14:10:32;;;;;;;0.47;0.20;;;;;;;;;;5074687;28;20370;-56
2021/09/30 14:12:58;;;;;;;2.45;0.32;;;;;;;;;;5071142;28;20048;-53
2021/09/30 14:15:24;;;;;;;0.50;0.20;;;;;;;;;;5071632;28;20016;-53
2021/09/30 14:17:50;;;;;;;0.30;0.22;;;;;;;;;;5074116;28;20099;-55
2021/09/30 14:20:16;;;;;;;0.30;0.10;;;;;;;;;;5072069;28;20111;-56
2021/09/30 14:22:42;;;;;;;1.40;0.20;;;;;;;;;;5068050;28;20032;-56
2021/09/30 14:25:09;;;;;;;1.50;0.20;;;;;;;;;;5070946;28;20103;-57
2021/09/30 14:27:38;;;;;;;3.53;0.15;;;;;;;;;;5071921;28;20033;-54
2021/09/30 14:30:05;;;;;;;0.60;0.10;;;;;;;;;;5073730;28;20039;-54
2021/09/30 14:32:31;;;;;;;1.27;0.20;;;;;;;;;;5073283;28;20029;-54
2021/09/30 14:34:57;;;;;;;7.22;0.30;;;;;;;;;;5073248;28;20107;-53
2021/09/30 14:37:23;;;;;;;1.15;0.10;;;;;;;;;;5072794;28;20462;-52
2021/09/30 14:39:49;;;;;;;0.52;0.20;;;;;;;;;;5071770;28;20043;-56
2021/09/30 14:42:15;;;;;;;2.30;0.55;;;;;;;;;;5070852;28;20077;-57
2021/09/30 14:44:41;;;;;;;1.10;0.20;;;;;;;;;;5072629;28;20025;-57
2021/09/30 14:47:07;;;;;;;1.88;0.35;;;;;;;;;;5068556;28;20388;-53
2021/09/30 14:49:38;;;;;;;2.22;0.30;;;;;;;;;;5072147;28;20119;-56
2021/09/30 14:52:05;;;;;;;0.40;0.20;;;;;;;;;;5064585;28;20024;-54
2021/09/30 14:54:31;;;;;;;0.85;0.30;;;;;;;;;;5069464;28;20107;-56
2021/09/30 14:56:57;;;;;;;1.52;0.20;;;;;;;;;;5069593;28;20626;-54
2021/09/30 14:59:23;;;;;;;0.55;0.10;;;;;;;;;;5069601;28;20125;-58
2021/09/30 15:01:49;;;;;;;1.70;0.30;;;;;;;;;;5075104;28;20107;-52
2021/09/30 15:04:15;;;;;;;1.98;0.50;;;;;;;;;;5075701;28;20499;-57
2021/09/30 15:06:41;;;;;;;2.83;0.35;;;;;;;;;;5070349;28;20115;-52
2021/09/30 15:09:08;;;;;;;2.65;0.38;;;;;;;;;;5067279;28;20063;-55
2021/09/30 15:11:37;;;;;;;0.68;0.20;;;;;;;;;;5071117;28;20063;-56
2021/09/30 15:14:03;;;;;;;0.55;0.35;;;;;;;;;;5072105;28;20017;-56
2021/09/30 15:16:31;;;;;;;1.65;0.43;;;;;;;;;;5069505;28;20051;-57
2021/09/30 15:19:03;;;;;;;1.48;0.60;;;;;;;;;;5071393;28;20491;-54
2021/09/30 15:21:30;;;;;;;2.55;0.30;;;;;;;;;;5061638;28;20087;-57
2021/09/30 15:24:02;;;;;;;0.85;0.22;;;;;;;;;;5068725;28;20045;-55
2021/09/30 15:26:27;;;;;;;;;;;;;;;;;;5072511;28;20051;-56
2021/09/30 15:28:54;;;;;;;;;;;;;;;;;;5068320;28;19908;-53
2021/09/30 15:31:20;;;;;;;;;;;;;;;;;;5071221;28;20015;-53
2021/09/30 15:33:45;;;;;;;;;;;;;;;;;;5068440;28;20007;-53
2021/09/30 15:36:12;;;;;;;;;;;;;;;;;;5070070;28;19948;-55
2021/09/30 15:38:39;;;;;;;;;;;;;;;;;;5065148;28;19993;-52
2021/09/30 15:41:05;;;;;;;;;;;;;;;;;;5066434;28;20279;-55
2021/09/30 15:43:32;;;;;;;;;;;;;;;;;;5065112;28;19955;-54
2021/09/30 15:45:58;;;;;;;;;;;;;;;;;;5068672;28;20433;-56
2021/09/30 15:48:24;;;;;;;;;;;;;;;;;;5067597;28;19908;-57
2021/09/30 15:50:50;;;;;;;;;;;;;;;;;;5067109;28;19970;-54
2021/09/30 15:53:17;;;;;;;;;;;;;;;;;;5068678;28;19919;-54
2021/09/30 15:55:42;;;;;;;;;;;;;;;;;;5064034;28;19923;-56
2021/09/30 15:58:09;;;;;;;;;;;;;;;;;;5065097;28;19948;-56
2021/09/30 16:00:35;;;;;;;;;;;;;;;;;;5070438;28;19927;-55
2021/09/30 16:03:01;;;;;;;;;;;;;;;;;;5071612;28;19943;-54
2021/09/30 16:05:26;;;;;;;;;;;;;;;;;;5070247;28;20350;-58
2021/09/30 16:07:52;;;;;;;;;;;;;;;;;;5066556;28;19912;-58
2021/09/30 16:10:18;;;;;;;;;;;;;;;;;;5072738;28;20601;-57
2021/09/30 16:12:44;;;;;;;;;;;;;;;;;;5071833;28;19935;-56
2021/09/30 16:15:10;;;;;;;;;;;;;;;;;;5070312;28;19940;-57
2021/09/30 16:17:36;;;;;;;;;;;;;;;;;;5071964;28;19987;-54
2021/09/30 16:20:02;;;;;;;;;;;;;;;;;;5069208;28;19959;-53
2021/09/30 16:22:28;;;;;;;;;;;;;;;;;;5067569;28;19955;-55
2021/09/30 16:24:54;;;;;;;;;;;;;;;;;;5072574;28;19970;-54
2021/09/30 16:27:23;;;;;;;;;;;;;;;;;;5073787;28;19927;-57
2021/09/30 16:29:48;;;;;;;;;;;;;;;;;;5071041;28;20367;-58
2021/09/30 16:32:14;;;;;;;;;;;;;;;;;;5070922;28;19944;-54
2021/09/30 16:34:40;;;;;;;;;;;;;;;;;;5069547;28;19947;-55
2021/09/30 16:37:06;;;;;;;;;;;;;;;;;;5073717;28;19909;-57
2021/09/30 16:39:32;;;;;;;;;;;;;;;;;;5063870;28;19947;-57
2021/09/30 16:41:58;;;;;;;;;;;;;;;;;;5067923;28;20013;-54
2021/09/30 16:44:24;;;;;;;;;;;;;;;;;;5070313;28;19909;-54
2021/09/30 16:46:51;;;;;;;;;;;;;;;;;;5064897;28;20408;-53
2021/09/30 16:49:17;;;;;;;;;;;;;;;;;;5070049;28;19917;-51
2021/09/30 16:51:43;;;;;;;;;;;;;;;;;;5068727;28;20379;-52
2021/09/30 16:54:09;;;;;;;;;;;;;;;;;;5067020;28;19923;-53
2021/09/30 16:56:35;;;;;;;;;;;;;;;;;;5067450;28;19947;-52
2021/09/30 16:59:02;;;;;;;;;;;;;;;;;;5065023;28;20364;-54
2021/09/30 17:01:29;;;;;;;;;;;;;;;;;;5070256;28;19908;-57
2021/09/30 17:03:55;;;;;;;;;;;;;;;;;;5072946;28;19908;-51
2021/09/30 17:06:20;;;;;;;;;;;;;;;;;;5069246;28;19946;-56
2021/09/30 17:08:46;;;;;;;;;;;;;;;;;;5063725;28;20379;-57
2021/09/30 17:11:15;;;;;;;;;;;;;;;;;;5070887;28;19908;-53
2021/09/30 17:13:41;;;;;;;;;;;;;;;;;;5066686;28;19915;-53
2021/09/30 17:16:09;;;;;;;;;;;;;;;;;;5065848;28;19952;-55
2021/09/30 17:18:35;;;;;;;;;;;;;;;;;;5061007;28;19928;-52
2021/09/30 17:21:01;;;;;;;;;;;;;;;;;;5070364;28;19916;-56
2021/09/30 17:23:27;;;;;;;;;;;;;;;;;;5066033;28;20317;-55
2021/09/30 17:25:53;;;;;;;;;;;;;;;;;;5063694;28;19922;-55
2021/09/30 17:28:19;;;;;;;;;;;;;;;;;;5063212;28;19999;-54
2021/09/30 17:30:45;;;;;;;;;;;;;;;;;;5068982;28;20403;-53
2021/09/30 17:33:11;;;;;;;;;;;;;;;;;;5070085;28;19912;-53
2021/09/30 17:35:37;;;;;;;;;;;;;;;;;;5062318;28;20280;-51